Time;durP1;ratioP1;P1;durP2;ratioP2;P2;SDS_P1;SDS_P2;PMS_P1;PMS_P2;Temp;Humidity;BMP_temperature;BMP_pressure;BME280_temperature;BME280_humidity;BME280_pressure;Samples;Min_cycle;Max_cycle;Signal;HPM_P1;HPM_P2
2022/06/13 00:00:30;;;;;;;12.23;6.00;;;;;;;12.40;84.72;102057.28;5035155;28;20033;-86
2022/06/13 00:02:56;;;;;;;16.23;6.28;;;;;;;12.37;84.46;102059.88;5052783;28;20028;-86
2022/06/13 00:05:22;;;;;;;15.25;5.93;;;;;;;12.34;85.12;102059.94;5052554;28;20033;-86
2022/06/13 00:07:47;;;;;;;14.68;6.28;;;;;;;12.30;84.94;102042.63;5052630;28;20100;-86
2022/06/13 00:10:14;;;;;;;16.80;6.50;;;;;;;12.28;85.18;102046.09;5051917;28;20025;-86
2022/06/13 00:12:41;;;;;;;13.23;5.90;;;;;;;12.23;85.18;102047.91;5052482;28;20033;-86
2022/06/13 00:15:09;;;;;;;15.98;6.45;;;;;;;12.17;85.06;102042.78;5035344;28;20028;-86
2022/06/13 00:17:34;;;;;;;13.90;5.82;;;;;;;12.17;85.08;102039.31;5052582;28;20067;-86
2022/06/13 00:20:00;;;;;;;13.00;6.05;;;;;;;12.18;85.50;102041.91;5053258;28;20052;-86
2022/06/13 00:22:25;;;;;;;14.10;6.68;;;;;;;12.15;85.58;102035.88;5053242;28;20021;-86
2022/06/13 00:24:51;;;;;;;15.63;6.70;;;;;;;12.13;86.24;102042.84;5050109;28;20111;-86
2022/06/13 00:27:16;;;;;;;16.48;6.45;;;;;;;12.08;86.15;102034.22;5009617;28;20375;-86
2022/06/13 00:29:44;;;;;;;17.55;7.45;;;;;;;12.07;86.31;102035.97;5053057;28;20061;-86
2022/06/13 00:32:09;;;;;;;15.48;6.63;;;;;;;12.06;86.55;102039.44;5051194;28;20044;-86
2022/06/13 00:34:35;;;;;;;15.00;6.70;;;;;;;12.01;86.81;102036.00;5052799;28;20033;-86
2022/06/13 00:37:00;;;;;;;15.23;6.25;;;;;;;12.07;87.17;102038.56;5051490;28;20151;-86
2022/06/13 00:39:25;;;;;;;14.40;6.43;;;;;;;12.10;87.61;102048.91;5051096;28;20420;-86
2022/06/13 00:41:51;;;;;;;13.10;6.95;;;;;;;12.11;87.54;102035.06;5052868;28;20288;-86
2022/06/13 00:44:24;;;;;;;14.25;7.00;;;;;;;12.14;87.62;102035.03;5052584;28;20516;-86
2022/06/13 00:46:50;;;;;;;15.52;6.75;;;;;;;12.15;87.92;102028.06;5051856;28;20039;-86
2022/06/13 00:49:30;;;;;;;16.10;6.78;;;;;;;12.17;87.57;102026.31;5052424;28;20270;-86
2022/06/13 00:52:01;;;;;;;14.98;6.63;;;;;;;12.20;88.00;102026.31;5055141;28;20031;-86
2022/06/13 00:54:27;;;;;;;12.50;6.63;;;;;;;12.23;88.51;102016.72;5040580;28;20033;-86
2022/06/13 00:56:53;;;;;;;15.77;6.88;;;;;;;12.27;88.83;102013.22;5033602;28;20061;-86
2022/06/13 00:59:21;;;;;;;15.50;7.47;;;;;;;12.32;88.68;102020.94;5052230;28;20029;-86
2022/06/13 01:01:47;;;;;;;17.90;7.38;;;;;;;12.37;88.95;102019.16;5052295;28;20686;-86
2022/06/13 01:04:13;;;;;;;15.20;7.15;;;;;;;12.44;88.68;102017.34;5052263;28;20048;-86
2022/06/13 01:06:43;;;;;;;16.25;7.80;;;;;;;12.50;89.19;102014.66;5050866;28;20067;-86
2022/06/13 01:09:13;;;;;;;14.05;7.75;;;;;;;12.54;89.05;102005.94;5049305;28;20569;-86
2022/06/13 01:11:46;;;;;;;16.30;7.95;;;;;;;12.59;88.89;102012.81;5033830;28;20024;-86
2022/06/13 01:14:36;;;;;;;15.60;7.73;;;;;;;12.63;87.94;102014.47;5052481;28;20108;-86
2022/06/13 01:17:43;;;;;;;18.23;8.80;;;;;;;12.66;87.59;102014.44;5052131;28;20036;-86
2022/06/13 01:20:44;;;;;;;18.50;8.70;;;;;;;12.69;86.90;102015.28;5038594;28;20051;-86
2022/06/13 01:23:44;;;;;;;24.20;8.68;;;;;;;12.74;87.24;102016.09;5049645;28;20033;-86
2022/06/13 01:26:37;;;;;;;20.77;8.60;;;;;;;12.77;87.52;102019.47;5049067;28;20063;-87
2022/06/13 01:29:08;;;;;;;17.55;8.50;;;;;;;12.76;87.86;102014.31;5051796;28;20025;-86
2022/06/13 01:31:39;;;;;;;16.20;8.02;;;;;;;12.78;88.27;102009.94;5049666;28;20032;-86
2022/06/13 01:34:26;;;;;;;19.88;9.05;;;;;;;12.82;88.28;102019.44;5051857;28;20486;-86
2022/06/13 01:37:15;;;;;;;16.63;8.60;;;;;;;12.84;87.33;102026.31;5059002;28;20024;-86
2022/06/13 01:40:05;;;;;;;17.45;8.57;;;;;;;12.85;87.79;102030.66;5052475;28;20086;-86
2022/06/13 01:43:06;;;;;;;18.17;8.18;;;;;;;12.87;87.83;102010.69;5053406;28;20103;-87
2022/06/13 01:45:51;;;;;;;18.10;7.97;;;;;;;12.93;88.40;102004.53;5043037;28;20025;-87
2022/06/13 01:48:48;;;;;;;17.42;8.60;;;;;;;12.98;87.88;102002.69;5051333;28;20032;-86
2022/06/13 01:51:21;;;;;;;22.58;9.00;;;;;;;12.96;87.25;101997.53;5048095;28;20083;-86
2022/06/13 01:53:56;;;;;;;16.55;9.35;;;;;;;12.96;86.59;101994.94;5048317;28;20029;-86
2022/06/13 01:56:35;;;;;;;16.73;8.18;;;;;;;12.97;87.35;101999.25;5049466;28;20532;-86
2022/06/13 01:59:20;;;;;;;16.98;8.05;;;;;;;12.99;87.67;102009.63;5051141;28;20033;-87
2022/06/13 02:01:56;;;;;;;18.67;7.93;;;;;;;12.99;87.98;102005.28;5050839;28;20049;-86
2022/06/13 02:04:28;;;;;;;19.88;8.50;;;;;;;12.98;87.50;102011.38;5035915;28;20035;-87
2022/06/13 02:07:07;;;;;;;18.55;8.88;;;;;;;13.00;87.48;102016.56;5048709;28;20626;-86
2022/06/13 02:09:48;;;;;;;19.45;8.52;;;;;;;13.03;87.62;102008.72;5050990;28;20055;-87
2022/06/13 02:12:17;;;;;;;15.88;8.38;;;;;;;13.05;88.31;102007.78;5049684;28;20028;-86
2022/06/13 02:14:49;;;;;;;20.55;8.98;;;;;;;13.08;87.72;102012.09;5050316;28;20401;-86
2022/06/13 02:17:21;;;;;;;17.20;8.27;;;;;;;13.11;88.33;102014.66;5049946;28;20021;-87
2022/06/13 02:20:09;;;;;;;18.63;8.63;;;;;;;13.14;87.06;102016.38;5048551;28;20052;-87
2022/06/13 02:22:37;;;;;;;15.98;8.43;;;;;;;13.16;88.30;102017.22;5050773;28;20596;-87
2022/06/13 02:25:17;;;;;;;15.90;8.60;;;;;;;13.18;87.92;102011.09;5047833;28;20031;-86
2022/06/13 02:27:47;;;;;;;18.80;8.05;;;;;;;13.18;87.12;102010.25;5048295;28;20032;-86
2022/06/13 02:30:18;;;;;;;18.38;8.57;;;;;;;13.21;87.87;102002.38;5050721;28;20012;-87
2022/06/13 02:32:50;;;;;;;19.67;8.07;;;;;;;13.20;87.31;101993.72;5050447;28;20086;-86
2022/06/13 02:35:22;;;;;;;19.52;8.43;;;;;;;13.25;88.30;101993.63;5056711;28;20094;-87
2022/06/13 02:37:53;;;;;;;19.00;8.43;;;;;;;13.23;87.76;101993.69;5046913;28;20025;-86
2022/06/13 02:40:39;;;;;;;26.00;8.95;;;;;;;13.28;87.48;101997.06;5052911;28;20032;-86
2022/06/13 02:43:12;;;;;;;21.92;8.65;;;;;;;13.28;87.73;101998.81;5039488;28;20029;-87
2022/06/13 02:45:37;;;;;;;20.30;8.35;;;;;;;13.31;88.09;102001.34;5054369;28;20481;-86
2022/06/13 02:48:27;;;;;;;18.43;8.40;;;;;;;13.33;86.60;101990.03;5053426;28;20029;-87
2022/06/13 02:51:17;;;;;;;22.88;8.55;;;;;;;13.35;85.65;101990.88;5039073;28;20294;-87
2022/06/13 02:53:53;;;;;;;17.08;7.85;;;;;;;13.38;85.55;101992.53;5045905;28;20433;-87
2022/06/13 02:56:33;;;;;;;22.33;8.38;;;;;;;13.39;84.74;101992.53;5041646;28;20029;-87
2022/06/13 02:59:17;;;;;;;21.83;8.43;;;;;;;13.41;84.49;101990.75;5054323;28;20032;-89
2022/06/13 03:01:48;;;;;;;21.65;8.60;;;;;;;13.44;84.83;101985.47;5043885;28;20084;-89
2022/06/13 03:04:32;;;;;;;20.40;8.98;;;;;;;13.48;86.61;101982.84;5044970;28;20029;-90
2022/06/13 03:07:26;;;;;;;24.63;8.98;;;;;;;13.49;84.14;101984.56;5049309;28;20041;-89
2022/06/13 03:10:15;;;;;;;21.42;8.80;;;;;;;13.50;83.52;101979.34;5048563;28;20032;-90
2022/06/13 03:12:59;;;;;;;23.17;8.70;;;;;;;13.52;83.97;101987.09;5049362;28;20509;-89
2022/06/13 03:15:45;;;;;;;21.83;8.95;;;;;;;13.54;83.10;101998.34;5050304;28;20040;-90
2022/06/13 03:18:28;;;;;;;20.02;8.43;;;;;;;13.53;82.95;101994.91;5049065;28;20067;-90
2022/06/13 03:21:09;;;;;;;22.13;8.73;;;;;;;13.54;82.95;101998.34;5031560;28;20151;-89
2022/06/13 03:23:43;;;;;;;22.33;9.27;;;;;;;13.55;82.88;102000.94;5049398;28;20025;-89
2022/06/13 03:26:21;;;;;;;20.63;8.63;;;;;;;13.57;82.99;102000.94;5051101;28;20104;-89
2022/06/13 03:28:53;;;;;;;27.67;9.20;;;;;;;13.55;83.06;102000.09;5049154;28;20406;-90
2022/06/13 03:31:43;;;;;;;23.00;9.32;;;;;;;13.56;84.99;101992.25;5049705;28;20447;-89
2022/06/13 03:34:14;;;;;;;21.42;8.77;;;;;;;13.54;85.69;101999.22;5049589;28;20405;-89
2022/06/13 03:37:20;;;;;;;21.70;9.00;;;;;;;13.52;84.36;102003.59;5049121;28;20441;-90
2022/06/13 03:39:58;;;;;;;25.33;9.40;;;;;;;13.48;83.32;102003.69;5034973;28;20049;-88
2022/06/13 03:42:27;;;;;;;27.42;9.60;;;;;;;13.47;83.27;102010.63;5042568;28;20025;-87
2022/06/13 03:45:02;;;;;;;23.63;9.40;;;;;;;13.46;84.59;102008.91;5039880;28;20025;-87
2022/06/13 03:47:33;;;;;;;23.08;9.55;;;;;;;13.47;83.91;102009.78;5048608;28;20033;-87
2022/06/13 03:50:24;;;;;;;23.17;9.55;;;;;;;13.47;84.04;102008.03;5048955;28;20028;-87
2022/06/13 03:53:06;;;;;;;24.98;9.80;;;;;;;13.47;83.60;102014.97;5049615;28;20116;-87
2022/06/13 03:55:43;;;;;;;24.80;10.18;;;;;;;13.48;85.63;102017.56;5030740;28;20025;-86
2022/06/13 03:58:15;;;;;;;24.20;10.05;;;;;;;13.48;84.39;102016.69;5046422;28;20417;-87
2022/06/13 04:00:48;;;;;;;24.05;10.20;;;;;;;13.47;86.32;102018.44;5049279;28;20120;-86
2022/06/13 04:03:14;;;;;;;21.13;9.25;;;;;;;13.43;84.88;102014.19;5024460;28;20461;-87
2022/06/13 04:05:56;;;;;;;23.88;10.68;;;;;;;13.45;85.31;102021.06;5052168;28;20385;-87
2022/06/13 04:08:22;;;;;;;30.52;11.05;;;;;;;13.39;84.07;102018.56;5053235;28;20036;-89
2022/06/13 04:11:10;;;;;;;26.05;10.20;;;;;;;13.44;84.11;102028.94;5053410;28;20029;-89
2022/06/13 04:13:46;;;;;;;25.27;10.45;;;;;;;13.43;85.98;102020.25;5051532;28;20036;-89
2022/06/13 04:16:26;;;;;;;25.40;10.88;;;;;;;13.45;84.64;102026.28;5048727;28;20037;-90
2022/06/13 04:19:13;;;;;;;28.02;9.68;;;;;;;13.47;85.72;102025.41;5053186;28;20029;-89
2022/06/13 04:21:59;;;;;;;24.60;11.27;;;;;;;13.50;86.58;102033.19;5023465;28;20071;-90
2022/06/13 04:24:46;;;;;;;29.90;11.15;;;;;;;13.52;86.53;102028.78;5048933;28;20045;-90
2022/06/13 04:27:53;;;;;;;29.38;10.60;;;;;;;13.55;86.00;102041.75;5033777;28;20108;-89
2022/06/13 04:30:22;;;;;;;25.00;10.63;;;;;;;13.56;88.16;102033.06;5043355;28;20029;-89
2022/06/13 04:33:02;;;;;;;26.38;10.18;;;;;;;13.61;86.21;102041.66;5061686;28;20025;-89
2022/06/13 04:35:29;;;;;;;28.75;10.73;;;;;;;13.65;86.94;102044.19;5025617;28;20476;-90
2022/06/13 04:37:56;;;;;;;22.40;10.85;;;;;;;13.69;85.55;102050.22;5042806;28;20064;-90
2022/06/13 04:40:26;;;;;;;26.10;11.07;;;;;;;13.73;87.92;102037.09;5052647;28;20047;-87
2022/06/13 04:42:54;;;;;;;28.77;10.98;;;;;;;13.80;87.78;102038.69;5033339;28;20520;-87
2022/06/13 04:45:22;;;;;;;26.98;11.07;;;;;;;13.90;86.81;102041.16;5048170;28;20029;-87
2022/06/13 04:47:49;;;;;;;26.23;11.77;;;;;;;13.93;86.85;102041.06;5050791;28;20040;-87
2022/06/13 04:50:17;;;;;;;28.08;10.73;;;;;;;13.98;87.24;102039.28;5055118;28;20031;-87
2022/06/13 04:52:46;;;;;;;29.05;10.43;;;;;;;13.97;87.18;102046.22;5039411;28;20111;-87
2022/06/13 04:55:18;;;;;;;29.10;11.65;;;;;;;14.01;87.44;102047.88;5061055;28;20029;-87
2022/06/13 04:57:43;;;;;;;28.85;11.38;;;;;;;14.08;88.51;102040.81;5021133;28;20449;-87
2022/06/13 05:00:11;;;;;;;27.50;10.85;;;;;;;14.13;85.76;102047.63;5047365;28;20045;-87
2022/06/13 05:02:43;;;;;;;26.08;10.68;;;;;;;14.18;85.09;102048.44;5034622;28;20032;-87
2022/06/13 05:05:23;;;;;;;30.20;11.27;;;;;;;14.24;85.77;102044.84;5059093;28;20017;-87
2022/06/13 05:07:48;;;;;;;32.35;10.88;;;;;;;14.30;85.34;102051.69;5038811;28;20037;-86
2022/06/13 05:10:18;;;;;;;27.75;11.23;;;;;;;14.38;85.23;102049.81;5051666;28;20013;-86
2022/06/13 05:12:44;;;;;;;29.75;11.95;;;;;;;14.47;85.84;102049.63;5050817;28;20028;-87
2022/06/13 05:15:21;;;;;;;31.65;11.75;;;;;;;14.58;85.13;102050.28;5032867;28;20025;-86
2022/06/13 05:18:02;;;;;;;27.65;11.98;;;;;;;14.68;85.40;102056.13;5051859;28;20077;-87
2022/06/13 05:20:58;;;;;;;30.05;11.60;;;;;;;14.79;84.04;102054.19;5031163;28;20028;-87
2022/06/13 05:23:48;;;;;;;28.73;11.48;;;;;;;14.88;84.27;102067.88;5046546;28;20033;-87
2022/06/13 05:26:14;;;;;;;25.35;11.00;;;;;;;14.98;86.16;102063.31;5050633;28;20048;-87
2022/06/13 05:28:39;;;;;;;27.75;11.02;;;;;;;15.09;84.59;102070.91;5048035;28;20057;-87
2022/06/13 05:31:16;;;;;;;25.00;10.80;;;;;;;15.16;85.02;102070.72;5051261;28;20032;-87
2022/06/13 05:33:42;;;;;;;30.58;11.27;;;;;;;15.18;84.29;102070.69;5049917;28;20036;-87
2022/06/13 05:36:17;;;;;;;24.13;11.00;;;;;;;15.22;82.50;102067.09;5050884;28;20032;-87
2022/06/13 05:38:48;;;;;;;27.35;11.52;;;;;;;15.28;82.17;102065.25;5050409;28;20057;-87
2022/06/13 05:41:14;;;;;;;23.83;10.43;;;;;;;15.39;83.41;102075.41;5037265;28;20475;-87
2022/06/13 05:43:39;;;;;;;29.50;10.93;;;;;;;15.46;83.71;102081.34;5025477;28;20044;-86
2022/06/13 05:46:07;;;;;;;26.95;10.32;;;;;;;15.53;81.78;102077.72;5051438;28;20036;-87
2022/06/13 05:48:33;;;;;;;23.48;10.27;;;;;;;15.58;80.51;102088.91;5049566;28;20028;-87
2022/06/13 05:50:58;;;;;;;22.02;9.45;;;;;;;15.62;81.19;102080.13;5048239;28;20087;-87
2022/06/13 05:53:25;;;;;;;25.40;8.93;;;;;;;15.67;82.54;102086.09;5045672;28;20033;-87
2022/06/13 05:55:54;;;;;;;22.88;9.00;;;;;;;15.75;80.78;102081.53;5049821;28;20028;-87
2022/06/13 05:58:22;;;;;;;25.85;9.25;;;;;;;15.79;82.54;102094.47;5045690;28;20036;-87
2022/06/13 06:00:52;;;;;;;22.23;9.30;;;;;;;15.89;79.66;102102.09;5049333;28;20103;-87
2022/06/13 06:03:18;;;;;;;21.95;8.25;;;;;;;16.01;81.21;102104.41;5032096;28;20021;-87
2022/06/13 06:05:44;;;;;;;24.98;9.65;;;;;;;16.11;82.40;102103.25;5025468;28;20036;-88
2022/06/13 06:08:17;;;;;;;21.15;8.55;;;;;;;16.22;83.07;102103.84;5032356;28;20470;-88
2022/06/13 06:10:44;;;;;;;20.40;8.88;;;;;;;16.27;78.29;102108.94;5057593;28;20028;-87
2022/06/13 06:13:13;;;;;;;23.85;8.98;;;;;;;16.33;77.41;102114.00;5033076;28;20025;-88
2022/06/13 06:15:40;;;;;;;22.48;8.55;;;;;;;16.41;78.88;102122.50;5051090;28;20033;-88
2022/06/13 06:18:06;;;;;;;22.20;8.75;;;;;;;16.53;77.23;102125.63;5050517;28;20123;-88
2022/06/13 06:20:31;;;;;;;21.33;8.65;;;;;;;16.55;75.25;102123.84;5046895;28;20527;-87
2022/06/13 06:22:57;;;;;;;20.95;8.27;;;;;;;16.59;78.16;102122.84;5033218;28;20029;-88
2022/06/13 06:25:22;;;;;;;17.98;8.20;;;;;;;16.63;77.17;102122.81;5029321;28;20108;-87
2022/06/13 06:27:47;;;;;;;16.90;7.22;;;;;;;16.67;75.45;102127.03;5050848;28;20447;-88
2022/06/13 06:30:17;;;;;;;18.70;6.50;;;;;;;16.64;74.03;102129.75;5061659;28;20079;-87
2022/06/13 06:32:44;;;;;;;16.42;5.78;;;;;;;16.56;73.28;102135.19;5023780;28;20025;-87
2022/06/13 06:35:10;;;;;;;18.92;5.97;;;;;;;16.51;75.18;102132.66;5030563;28;20529;-88
2022/06/13 06:37:46;;;;;;;15.55;5.55;;;;;;;16.39;72.23;102129.53;5032086;28;20140;-88
2022/06/13 06:40:13;;;;;;;19.45;5.68;;;;;;;16.31;72.36;102137.59;5031247;28;20040;-89
2022/06/13 06:42:38;;;;;;;14.90;4.75;;;;;;;16.22;70.47;102137.84;5049434;28;20036;-90
2022/06/13 06:45:04;;;;;;;15.50;4.65;;;;;;;16.21;72.85;102146.59;5049799;28;20025;-90
2022/06/13 06:47:29;;;;;;;15.30;4.43;;;;;;;16.32;72.72;102147.16;5053827;28;20028;-89
2022/06/13 06:49:55;;;;;;;15.45;4.88;;;;;;;16.44;71.91;102165.19;5048651;28;20435;-91
2022/06/13 06:52:20;;;;;;;15.00;4.30;;;;;;;16.50;70.57;102156.28;5048324;28;20017;-90
2022/06/13 07:00:14;;;;;;;13.15;4.35;;;;;;;16.50;70.83;102157.16;5048967;28;20060;-91
2022/06/13 07:02:39;;;;;;;14.73;3.75;;;;;;;16.62;69.02;102166.44;5048987;28;20470;-90
2022/06/13 07:05:07;;;;;;;12.88;4.05;;;;;;;16.75;69.53;102156.50;5050257;28;20070;-91
2022/06/13 07:07:33;;;;;;;12.40;3.88;;;;;;;16.89;67.05;102176.16;5032270;28;20031;-91
2022/06/13 07:09:58;;;;;;;9.50;3.25;;;;;;;16.96;67.01;102164.59;5050274;28;20025;-90
2022/06/13 07:12:24;;;;;;;8.63;3.05;;;;;;;17.05;66.14;102173.09;5049011;28;20048;-90
2022/06/13 07:14:49;;;;;;;8.02;3.05;;;;;;;17.12;64.84;102172.00;5047550;28;20033;-90
2022/06/13 07:17:15;;;;;;;8.68;3.15;;;;;;;17.12;63.57;102165.00;5032465;28;20021;-90
2022/06/13 07:19:44;;;;;;;10.13;2.80;;;;;;;17.14;64.39;102163.19;5032169;28;20091;-88
2022/06/13 07:22:18;;;;;;;9.02;2.30;;;;;;;17.30;63.54;102159.22;5041663;28;20493;-87
2022/06/13 07:24:47;;;;;;;8.88;2.50;;;;;;;17.39;62.29;102150.22;5047891;28;20025;-88
2022/06/13 07:27:14;;;;;;;10.52;2.50;;;;;;;17.53;63.01;102165.50;5049024;28;20478;-88
2022/06/13 07:29:41;;;;;;;9.02;2.75;;;;;;;17.70;61.72;102166.72;5055333;28;20579;-87
2022/06/13 07:32:10;;;;;;;7.45;3.25;;;;;;;17.83;61.02;102169.78;5058311;28;20070;-88
2022/06/13 07:34:37;;;;;;;7.35;3.00;;;;;;;18.10;60.33;102168.00;5054833;28;20110;-88
2022/06/13 07:37:05;;;;;;;13.40;2.70;;;;;;;18.36;58.24;102167.13;5072914;28;20503;-89
2022/06/13 07:39:30;;;;;;;6.97;2.55;;;;;;;18.64;60.00;102177.53;5047284;28;20028;-88
2022/06/13 07:41:57;;;;;;;9.13;2.67;;;;;;;18.91;56.82;102174.75;5053343;28;20029;-88
2022/06/13 07:44:30;;;;;;;8.80;2.58;;;;;;;19.56;57.97;102171.41;5057478;28;20043;-88
2022/06/13 07:46:56;;;;;;;8.30;2.50;;;;;;;20.86;52.34;102172.03;5034071;28;20382;-88
2022/06/13 07:49:21;;;;;;;8.00;2.50;;;;;;;21.99;52.71;102171.00;5043047;28;20490;-88
2022/06/13 07:51:47;;;;;;;10.45;2.70;;;;;;;23.09;48.63;102166.09;5034261;28;20042;-88
2022/06/13 07:54:13;;;;;;;8.18;2.60;;;;;;;24.33;46.22;102176.59;5031950;28;20043;-88
2022/06/13 07:56:39;;;;;;;7.28;2.47;;;;;;;25.28;45.09;102178.69;5053542;28;20070;-89
2022/06/13 07:59:06;;;;;;;9.00;2.83;;;;;;;25.48;43.75;102180.91;5055325;28;20021;-88
2022/06/13 08:01:32;;;;;;;9.65;2.50;;;;;;;25.54;40.35;102185.81;5069668;28;20037;-88
2022/06/13 08:03:58;;;;;;;7.63;2.70;;;;;;;25.67;41.56;102184.09;5048663;28;20036;-89
2022/06/13 08:06:25;;;;;;;9.82;2.60;;;;;;;25.88;39.99;102198.59;5053545;28;20029;-89
2022/06/13 08:08:51;;;;;;;7.97;2.75;;;;;;;25.94;42.51;102197.34;5053535;28;20029;-90
2022/06/13 08:11:20;;;;;;;7.68;2.40;;;;;;;25.79;42.21;102199.25;5048177;28;20462;-89
2022/06/13 08:13:46;;;;;;;8.88;2.90;;;;;;;25.51;41.06;102205.47;5053370;28;20471;-89
2022/06/13 08:16:12;;;;;;;7.30;2.40;;;;;;;25.25;45.42;102200.94;5053496;28;20039;-89
2022/06/13 08:18:38;;;;;;;10.40;2.80;;;;;;;24.88;43.35;102201.53;5053421;28;20021;-89
2022/06/13 08:21:07;;;;;;;8.27;2.70;;;;;;;24.82;44.54;102207.22;5052176;28;20124;-89
2022/06/13 08:23:33;;;;;;;7.15;2.80;;;;;;;24.69;44.96;102201.84;5046438;28;20017;-89
2022/06/13 08:25:58;;;;;;;8.68;2.80;;;;;;;24.95;44.72;102209.06;5059208;28;20031;-91
2022/06/13 08:28:24;;;;;;;7.15;2.50;;;;;;;24.70;42.64;102217.63;5055257;28;20025;-90
2022/06/13 08:30:53;;;;;;;8.70;2.65;;;;;;;24.00;44.24;102210.38;5053333;28;20278;-89
2022/06/13 08:33:20;;;;;;;7.07;2.65;;;;;;;23.48;44.06;102213.31;5041503;28;20025;-89
2022/06/13 08:35:45;;;;;;;7.32;2.45;;;;;;;23.29;45.14;102228.47;5034849;28;20033;-89
2022/06/13 08:38:12;;;;;;;10.68;2.47;;;;;;;23.00;48.08;102224.78;5052723;28;20035;-89
2022/06/13 08:41:14;;;;;;;8.10;2.50;;;;;;;23.36;48.37;102224.56;5034619;28;20025;-89
2022/06/13 08:44:00;;;;;;;7.68;2.40;;;;;;;23.51;46.57;102226.41;5052655;28;20027;-88
2022/06/13 08:46:31;;;;;;;7.50;2.40;;;;;;;23.42;47.10;102232.16;5053365;28;20017;-89
2022/06/13 08:49:06;;;;;;;8.75;2.28;;;;;;;23.51;46.03;102225.53;5064643;28;20037;-89
2022/06/13 08:51:46;;;;;;;5.20;2.13;;;;;;;23.30;46.64;102232.00;5034992;28;20032;-88
2022/06/13 08:54:20;;;;;;;6.78;2.20;;;;;;;22.48;45.27;102223.97;5059977;28;20032;-88
2022/06/13 08:56:47;;;;;;;5.32;1.95;;;;;;;22.08;47.92;102232.22;5042857;28;20026;-88
2022/06/13 08:59:24;;;;;;;6.70;2.30;;;;;;;21.88;51.03;102228.75;5032480;28;20025;-89
2022/06/13 09:02:00;;;;;;;8.38;2.03;;;;;;;22.17;49.66;102237.91;5044404;28;20502;-88
2022/06/13 09:04:39;;;;;;;6.72;2.00;;;;;;;22.26;47.21;102241.84;5042402;28;20028;-88
2022/06/13 09:07:30;;;;;;;8.02;2.05;;;;;;;21.71;45.83;102255.09;5052361;28;20024;-88
2022/06/13 09:10:06;;;;;;;5.00;1.98;;;;;;;20.96;49.13;102259.44;5052249;28;20417;-88
2022/06/13 09:12:48;;;;;;;7.97;1.92;;;;;;;20.96;49.21;102262.06;5039571;28;20108;-88
2022/06/13 09:15:20;;;;;;;6.22;1.83;;;;;;;21.08;47.38;102249.22;5018133;28;20029;-89
2022/06/13 09:17:51;;;;;;;7.43;2.00;;;;;;;21.09;48.10;102253.53;5032140;28;20368;-88
2022/06/13 09:20:25;;;;;;;6.55;2.00;;;;;;;21.02;50.61;102251.25;5050595;28;20021;-90
2022/06/13 09:23:04;;;;;;;6.15;1.88;;;;;;;21.35;52.96;102264.75;5051983;28;20113;-91
2022/06/13 09:25:40;;;;;;;8.20;2.03;;;;;;;21.93;51.19;102255.78;5037475;28;20162;-90
2022/06/13 09:28:19;;;;;;;6.47;1.80;;;;;;;22.23;50.45;102265.81;5064257;28;20024;-90
2022/06/13 09:30:51;;;;;;;5.38;2.17;;;;;;;22.17;47.48;102258.19;5041673;28;20021;-91
2022/06/13 09:33:28;;;;;;;7.40;2.30;;;;;;;21.88;46.60;102251.66;5051702;28;20025;-91
2022/06/13 09:35:59;;;;;;;6.63;2.00;;;;;;;21.68;48.89;102264.03;5051834;28;20079;-90
2022/06/13 09:38:51;;;;;;;6.72;1.80;;;;;;;21.63;49.00;102273.09;5051784;28;20017;-90
2022/06/13 09:41:38;;;;;;;5.88;1.52;;;;;;;22.08;48.11;102271.84;5051353;28;20071;-91
2022/06/13 09:44:24;;;;;;;6.10;1.80;;;;;;;22.52;46.64;102270.47;5033319;28;20033;-90
2022/06/13 09:47:20;;;;;;;5.10;1.77;;;;;;;22.78;46.94;102275.31;5051484;28;20029;-90
2022/06/13 09:49:55;;;;;;;4.65;1.83;;;;;;;22.75;43.99;102275.47;5051425;28;20033;-91
2022/06/13 09:52:26;;;;;;;5.80;1.83;;;;;;;22.23;43.64;102277.22;5062034;28;20555;-90
2022/06/13 09:55:10;;;;;;;4.75;1.80;;;;;;;21.55;47.50;102285.78;5044811;28;20178;-91
2022/06/13 09:58:04;;;;;;;5.90;1.70;;;;;;;20.94;51.12;102285.03;5033843;28;20478;-90
2022/06/13 10:00:37;;;;;;;4.88;1.80;;;;;;;20.90;47.27;102276.38;5022443;28;20044;-88
2022/06/13 10:03:30;;;;;;;6.63;1.60;;;;;;;21.34;47.15;102281.50;5037631;28;20021;-88
2022/06/13 10:06:14;;;;;;;5.68;1.40;;;;;;;21.85;45.71;102288.75;5033313;28;20025;-88
2022/06/13 10:08:57;;;;;;;5.05;1.42;;;;;;;21.71;44.09;102288.53;5050506;28;20025;-88
2022/06/13 10:11:28;;;;;;;4.28;1.40;;;;;;;21.53;44.75;102282.34;5051045;28;20027;-88
2022/06/13 10:14:09;;;;;;;4.55;1.40;;;;;;;21.72;44.67;102288.47;5051265;28;20107;-89
2022/06/13 10:16:40;;;;;;;4.72;1.50;;;;;;;21.87;44.05;102279.84;5051073;28;20486;-88
2022/06/13 10:19:40;;;;;;;5.55;1.73;;;;;;;22.16;46.56;102293.44;5032896;28;20028;-88
2022/06/13 10:22:13;;;;;;;4.43;1.40;;;;;;;22.22;43.56;102286.06;5043041;28;20079;-88
2022/06/13 10:25:02;;;;;;;6.15;1.40;;;;;;;22.04;44.67;102289.63;5046140;28;20033;-88
2022/06/13 10:27:47;;;;;;;5.32;1.30;;;;;;;22.14;44.72;102284.75;5018519;28;20029;-89
2022/06/13 10:30:21;;;;;;;3.92;1.48;;;;;;;22.30;42.55;102291.00;5040664;28;20024;-89
2022/06/13 10:33:23;;;;;;;5.55;1.60;;;;;;;22.27;42.98;102286.69;5036525;28;20031;-88
2022/06/13 10:36:09;;;;;;;4.50;1.40;;;;;;;21.91;43.77;102286.66;5022801;28;20052;-88
2022/06/13 10:38:54;;;;;;;3.53;1.70;;;;;;;21.51;43.66;102300.03;5030760;28;20036;-88
2022/06/13 10:41:21;;;;;;;5.85;1.80;;;;;;;21.22;45.48;102296.09;5048364;28;20117;-88
2022/06/13 10:43:46;;;;;;;6.40;1.73;;;;;;;21.30;43.91;102288.69;5032743;28;20029;-88
2022/06/13 10:46:15;;;;;;;7.95;1.65;;;;;;;21.39;44.49;102306.75;5055922;28;20036;-88
2022/06/13 10:48:52;;;;;;;6.13;2.20;;;;;;;21.45;45.24;102297.69;5045848;28;20479;-88
2022/06/13 10:51:18;;;;;;;7.68;2.17;;;;;;;21.56;45.82;102283.06;5037347;28;20021;-88
2022/06/13 10:54:01;;;;;;;5.10;1.90;;;;;;;21.64;45.10;102301.16;5063941;28;20027;-88
2022/06/13 10:56:34;;;;;;;6.55;1.90;;;;;;;21.78;46.57;102295.25;5015500;28;20029;-87
2022/06/13 10:59:00;;;;;;;5.15;2.30;;;;;;;21.96;44.90;102282.06;5032565;28;20021;-89
2022/06/13 11:01:28;;;;;;;5.50;2.28;;;;;;;22.35;45.28;102289.81;5050332;28;20048;-88
2022/06/13 11:04:02;;;;;;;4.22;1.92;;;;;;;22.43;43.75;102297.38;5050250;28;20021;-87
2022/06/13 11:06:44;;;;;;;4.22;1.98;;;;;;;22.01;44.66;102292.41;5032586;28;20033;-88
2022/06/13 11:09:37;;;;;;;4.03;1.67;;;;;;;21.31;46.00;102300.94;5049234;28;20051;-88
2022/06/13 11:12:15;;;;;;;5.40;1.75;;;;;;;20.78;45.06;102303.28;5049858;28;20029;-88
2022/06/13 11:23:44;;;;;;;5.50;1.65;;;;;;;21.60;43.52;102294.34;5047180;28;20036;-88
2022/06/13 11:27:39;;;;;;;4.43;1.77;;;;;;;21.71;43.67;102297.31;5049905;28;20028;-88
2022/06/13 11:28:56;;;;;;;8.32;1.95;;;;;;;22.04;43.16;102295.75;5049850;28;20036;-90
2022/06/13 11:31:25;;;;;;;5.80;1.80;;;;;;;22.11;42.87;102306.03;5049923;28;20486;-89
2022/06/13 11:33:53;;;;;;;4.50;1.85;;;;;;;21.88;43.63;102307.09;5050051;28;20083;-89
2022/06/13 11:36:21;;;;;;;5.68;2.08;;;;;;;21.45;42.72;102309.09;5048603;28;20393;-89
2022/06/13 11:38:56;;;;;;;5.80;1.77;;;;;;;21.36;44.04;102298.94;5031947;28;20025;-90
2022/06/13 11:41:36;;;;;;;5.32;1.83;;;;;;;21.24;42.46;102308.28;5049882;28;20032;-91
2022/06/13 11:44:04;;;;;;;5.60;1.90;;;;;;;21.26;42.28;102302.94;5049701;28;20067;-89
2022/06/13 11:46:37;;;;;;;3.70;1.70;;;;;;;21.38;43.13;102301.53;5048824;28;20037;-90
2022/06/13 11:49:19;;;;;;;4.72;1.80;;;;;;;21.62;43.28;102297.78;5049648;28;20104;-90
2022/06/13 11:52:06;;;;;;;6.70;2.28;;;;;;;21.43;43.65;102308.28;5051738;28;20020;-90
2022/06/13 11:54:40;;;;;;;4.97;2.13;;;;;;;21.10;44.33;102310.66;5048412;28;20047;-89
2022/06/13 11:57:14;;;;;;;5.90;2.03;;;;;;;20.72;46.37;102319.38;5029993;28;20101;-89
2022/06/13 11:59:52;;;;;;;5.53;2.15;;;;;;;20.26;46.66;102317.75;5033217;28;20053;-88
2022/06/13 12:02:21;;;;;;;7.32;2.20;;;;;;;20.02;47.66;102317.81;5048164;28;20041;-87
2022/06/13 12:04:47;;;;;;;5.30;2.20;;;;;;;20.08;47.55;102316.69;5049636;28;20029;-87